EmailTwitter


Surface observations / United Kingdom / EGLC

Regions: Quebec | Canada | USA | Europe | France | UK | Elsewhere
Station
Display
Info & Location for EGLC | Help decoding METAR

Weather Conditions observed on 2020/05/27 at 11:20 UTC at LONDON CITY AIRP, UK (EGLC)

Temperature: 22.0 Celsius.

Dewpoint: 10.0 Celsius.

Relative Humidity: 46%

Winds: East-southeast at 7 km/h or 4 knots.

Mean Sea level Pressure: 103.50 kilopascals.

Horizontal visibility: 6.21 statute miles or 9.94 kilometers.

Coded METAR:

EGLC 271120Z AUTO 11004KT 050V190 9999 NCD 22/10 Q1035=